sensor_id;sensor_type;location;lat;lon;timestamp;pressure;altitude;pressure_sealevel;temperature;humidity
13068;BME280;6600;51.362;6.686;2022-09-09T00:02:22;100401.91;;;15.51;100.00
13068;BME280;6600;51.362;6.686;2022-09-09T00:04:58;100406.97;;;15.48;100.00
13068;BME280;6600;51.362;6.686;2022-09-09T00:10:15;100413.66;;;15.45;100.00
13068;BME280;6600;51.362;6.686;2022-09-09T00:12:44;100413.66;;;15.45;100.00
13068;BME280;6600;51.362;6.686;2022-09-09T00:15:29;100410.41;;;15.43;100.00
13068;BME280;6600;51.362;6.686;2022-09-09T00:23:38;100400.81;;;15.52;100.00
13068;BME280;6600;51.362;6.686;2022-09-09T00:31:37;100410.00;;;15.51;100.00
13068;BME280;6600;51.362;6.686;2022-09-09T00:34:12;100408.91;;;15.52;100.00
13068;BME280;6600;51.362;6.686;2022-09-09T00:36:39;100410.00;;;15.51;100.00
13068;BME280;6600;51.362;6.686;2022-09-09T00:39:05;100414.81;;;15.49;100.00
13068;BME280;6600;51.362;6.686;2022-09-09T00:55:33;100403.00;;;15.55;100.00
13068;BME280;6600;51.362;6.686;2022-09-09T00:58:01;100404.63;;;15.56;100.00
13068;BME280;6600;51.362;6.686;2022-09-09T01:00:49;100401.91;;;15.51;100.00
13068;BME280;6600;51.362;6.686;2022-09-09T01:03:19;100404.03;;;15.49;100.00
13068;BME280;6600;51.362;6.686;2022-09-09T01:06:12;100399.63;;;15.43;100.00
13068;BME280;6600;51.362;6.686;2022-09-09T01:09:15;100399.09;;;15.46;100.00
13068;BME280;6600;51.362;6.686;2022-09-09T01:11:57;100406.03;;;15.37;100.00
13068;BME280;6600;51.362;6.686;2022-09-09T01:14:40;100401.13;;;15.34;100.00
13068;BME280;6600;51.362;6.686;2022-09-09T01:17:11;100394.13;;;15.33;100.00
13068;BME280;6600;51.362;6.686;2022-09-09T01:22:40;100390.53;;;15.28;100.00
13068;BME280;6600;51.362;6.686;2022-09-09T01:27:53;100389.13;;;15.20;100.00
13068;BME280;6600;51.362;6.686;2022-09-09T01:30:20;100395.81;;;15.17;100.00
13068;BME280;6600;51.362;6.686;2022-09-09T01:32:49;100380.44;;;15.18;100.00
13068;BME280;6600;51.362;6.686;2022-09-09T01:37:48;100388.03;;;15.21;100.00
13068;BME280;6600;51.362;6.686;2022-09-09T01:40:13;100390.72;;;15.21;100.00
13068;BME280;6600;51.362;6.686;2022-09-09T01:42:38;100380.56;;;15.28;100.00
13068;BME280;6600;51.362;6.686;2022-09-09T01:45:04;100385.91;;;15.23;100.00
13068;BME280;6600;51.362;6.686;2022-09-09T01:47:30;100384.34;;;15.27;100.00
13068;BME280;6600;51.362;6.686;2022-09-09T01:49:55;100387.91;;;15.33;100.00
13068;BME280;6600;51.362;6.686;2022-09-09T01:52:21;100380.66;;;15.38;100.00
13068;BME280;6600;51.362;6.686;2022-09-09T01:54:46;100385.22;;;15.38;100.00
13068;BME280;6600;51.362;6.686;2022-09-09T02:07:40;100378.66;;;15.50;100.00
13068;BME280;6600;51.362;6.686;2022-09-09T02:10:17;100382.72;;;15.53;100.00
13068;BME280;6600;51.362;6.686;2022-09-09T02:12:48;100383.03;;;15.56;100.00
13068;BME280;6600;51.362;6.686;2022-09-09T02:18:08;100380.38;;;15.61;100.00
13068;BME280;6600;51.362;6.686;2022-09-09T02:20:39;100383.84;;;15.57;100.00
13068;BME280;6600;51.362;6.686;2022-09-09T02:23:05;100374.69;;;15.58;100.00
13068;BME280;6600;51.362;6.686;2022-09-09T02:25:35;100389.03;;;15.63;100.00
13068;BME280;6600;51.362;6.686;2022-09-09T02:28:04;100383.09;;;15.61;100.00
13068;BME280;6600;51.362;6.686;2022-09-09T02:30:32;100382.00;;;15.62;100.00
13068;BME280;6600;51.362;6.686;2022-09-09T02:33:01;100382.50;;;15.59;100.00
13068;BME280;6600;51.362;6.686;2022-09-09T02:35:30;100380.38;;;15.61;100.00
13068;BME280;6600;51.362;6.686;2022-09-09T02:37:59;100374.41;;;15.59;100.00
13068;BME280;6600;51.362;6.686;2022-09-09T02:40:26;100378.16;;;15.58;100.00
13068;BME280;6600;51.362;6.686;2022-09-09T02:42:54;100379.56;;;15.61;100.00
13068;BME280;6600;51.362;6.686;2022-09-09T02:45:24;100367.94;;;15.60;100.00
13068;BME280;6600;51.362;6.686;2022-09-09T02:50:30;100372.81;;;15.63;100.00
13068;BME280;6600;51.362;6.686;2022-09-09T02:53:18;100369.59;;;15.61;100.00
13068;BME280;6600;51.362;6.686;2022-09-09T02:56:00;100368.25;;;15.64;100.00
13068;BME280;6600;51.362;6.686;2022-09-09T02:58:28;100372.81;;;15.63;100.00
13068;BME280;6600;51.362;6.686;2022-09-09T03:00:53;100359.88;;;15.65;100.00
13068;BME280;6600;51.362;6.686;2022-09-09T03:03:20;100367.44;;;15.63;100.00
13068;BME280;6600;51.362;6.686;2022-09-09T03:05:47;100368.25;;;15.64;100.00
13068;BME280;6600;51.362;6.686;2022-09-09T03:08:13;100364.22;;;15.66;100.00
13068;BME280;6600;51.362;6.686;2022-09-09T03:10:38;100371.84;;;15.75;100.00
13068;BME280;6600;51.362;6.686;2022-09-09T03:13:04;100364.78;;;15.69;100.00
13068;BME280;6600;51.362;6.686;2022-09-09T03:15:31;100370.19;;;15.69;100.00
13068;BME280;6600;51.362;6.686;2022-09-09T03:17:57;100362.63;;;15.71;100.00
13068;BME280;6600;51.362;6.686;2022-09-09T03:20:27;100368.03;;;15.71;100.00
13068;BME280;6600;51.362;6.686;2022-09-09T03:22:54;100358.03;;;15.71;100.00
13068;BME280;6600;51.362;6.686;2022-09-09T03:25:20;100370.28;;;15.79;100.00
13068;BME280;6600;51.362;6.686;2022-09-09T03:27:45;100353.53;;;15.82;100.00
13068;BME280;6600;51.362;6.686;2022-09-09T03:30:11;100361.06;;;15.80;100.00
13068;BME280;6600;51.362;6.686;2022-09-09T03:32:37;100356.25;;;15.82;100.00
13068;BME280;6600;51.362;6.686;2022-09-09T03:35:03;100359.47;;;15.79;100.00
13068;BME280;6600;51.362;6.686;2022-09-09T03:37:29;100358.38;;;15.80;100.00
13068;BME280;6600;51.362;6.686;2022-09-09T03:39:54;100358.88;;;15.77;100.00
13068;BME280;6600;51.362;6.686;2022-09-09T03:42:20;100364.56;;;15.75;100.00
13068;BME280;6600;51.362;6.686;2022-09-09T03:44:46;100355.63;;;15.75;100.00
13068;BME280;6600;51.362;6.686;2022-09-09T03:47:19;100362.63;;;15.71;100.00
13068;BME280;6600;51.362;6.686;2022-09-09T03:49:47;100357.75;;;15.68;100.00
13068;BME280;6600;51.362;6.686;2022-09-09T03:52:14;100358.78;;;15.61;100.00
13068;BME280;6600;51.362;6.686;2022-09-09T03:54:39;100360.91;;;15.59;100.00
13068;BME280;6600;51.362;6.686;2022-09-09T03:57:06;100357.66;;;15.57;100.00
13068;BME280;6600;51.362;6.686;2022-09-09T03:59:31;100366.28;;;15.54;100.00
13068;BME280;6600;51.362;6.686;2022-09-09T04:01:57;100360.34;;;15.57;100.00
13068;BME280;6600;51.362;6.686;2022-09-09T04:04:24;100359.25;;;15.58;100.00
13068;BME280;6600;51.362;6.686;2022-09-09T04:06:49;100355.50;;;15.59;100.00
13068;BME280;6600;51.362;6.686;2022-09-09T04:09:16;100360.38;;;15.62;100.00
13068;BME280;6600;51.362;6.686;2022-09-09T04:11:41;100362.03;;;15.63;100.00
13068;BME280;6600;51.362;6.686;2022-09-09T04:14:07;100357.69;;;15.62;100.00
13068;BME280;6600;51.362;6.686;2022-09-09T04:16:33;100363.09;;;15.62;100.00
13068;BME280;6600;51.362;6.686;2022-09-09T04:18:58;100363.09;;;15.62;100.00
13068;BME280;6600;51.362;6.686;2022-09-09T04:21:25;100370.13;;;15.63;100.00
13068;BME280;6600;51.362;6.686;2022-09-09T04:23:51;100364.97;;;15.62;100.00
13068;BME280;6600;51.362;6.686;2022-09-09T04:26:16;100360.13;;;15.64;100.00
13068;BME280;6600;51.362;6.686;2022-09-09T04:28:42;100365.28;;;15.65;100.00
13068;BME280;6600;51.362;6.686;2022-09-09T04:31:15;100365.28;;;15.65;100.00
13068;BME280;6600;51.362;6.686;2022-09-09T04:33:42;100365.88;;;15.73;100.00
13068;BME280;6600;51.362;6.686;2022-09-09T04:36:07;100363.69;;;15.70;100.00
13068;BME280;6600;51.362;6.686;2022-09-09T04:38:33;100362.94;;;15.74;100.00
13068;BME280;6600;51.362;6.686;2022-09-09T04:40:58;100369.97;;;15.75;100.00
13068;BME280;6600;51.362;6.686;2022-09-09T04:43:24;100369.69;;;15.77;100.00
13068;BME280;6600;51.362;6.686;2022-09-09T04:45:51;100370.75;;;15.76;100.00
13068;BME280;6600;51.362;6.686;2022-09-09T04:48:17;100369.69;;;15.77;100.00
13068;BME280;6600;51.362;6.686;2022-09-09T04:50:42;100373.22;;;15.77;100.00
13068;BME280;6600;51.362;6.686;2022-09-09T04:53:08;100363.75;;;15.75;100.00
13068;BME280;6600;51.362;6.686;2022-09-09T04:55:34;100367.00;;;15.77;100.00
13068;BME280;6600;51.362;6.686;2022-09-09T04:58:07;100363.22;;;15.78;100.00
13068;BME280;6600;51.362;6.686;2022-09-09T05:00:36;100363.75;;;15.75;100.00
13068;BME280;6600;51.362;6.686;2022-09-09T05:03:05;100369.16;;;15.75;100.00
13068;BME280;6600;51.362;6.686;2022-09-09T05:05:32;100366.16;;;15.76;100.00
13068;BME280;6600;51.362;6.686;2022-09-09T05:08:06;100362.16;;;15.79;100.00
13068;BME280;6600;51.362;6.686;2022-09-09T05:10:33;100360.53;;;15.83;100.00
13068;BME280;6600;51.362;6.686;2022-09-09T05:12:58;100375.66;;;15.79;100.00
13068;BME280;6600;51.362;6.686;2022-09-09T05:15:24;100368.63;;;15.78;100.00
13068;BME280;6600;51.362;6.686;2022-09-09T05:17:49;100364.34;;;15.82;100.00
13068;BME280;6600;51.362;6.686;2022-09-09T05:20:14;100359.47;;;15.84;100.00
13068;BME280;6600;51.362;6.686;2022-09-09T05:22:40;100358.94;;;15.82;100.00
13068;BME280;6600;51.362;6.686;2022-09-09T05:25:06;100351.38;;;15.84;100.00
13068;BME280;6600;51.362;6.686;2022-09-09T05:27:33;100359.25;;;15.85;100.00
13068;BME280;6600;51.362;6.686;2022-09-09T05:29:59;100358.72;;;15.88;100.00
13068;BME280;6600;51.362;6.686;2022-09-09T05:32:24;100355.72;;;15.85;100.00
13068;BME280;6600;51.362;6.686;2022-09-09T05:34:49;100365.47;;;15.86;100.00
13068;BME280;6600;51.362;6.686;2022-09-09T05:37:16;100357.09;;;15.87;100.00
13068;BME280;6600;51.362;6.686;2022-09-09T05:39:41;100351.44;;;15.89;100.00
13068;BME280;6600;51.362;6.686;2022-09-09T05:42:07;100355.03;;;15.99;100.00
13068;BME280;6600;51.362;6.686;2022-09-09T05:44:32;100353.16;;;16.05;100.00
13068;BME280;6600;51.362;6.686;2022-09-09T05:46:57;100355.31;;;16.03;100.00
13068;BME280;6600;51.362;6.686;2022-09-09T05:49:23;100354.78;;;16.06;100.00
13068;BME280;6600;51.362;6.686;2022-09-09T05:51:49;100356.44;;;16.12;100.00
13068;BME280;6600;51.362;6.686;2022-09-09T05:54:15;100350.50;;;16.10;100.00
13068;BME280;6600;51.362;6.686;2022-09-09T05:56:41;100354.81;;;16.11;100.00
13068;BME280;6600;51.362;6.686;2022-09-09T05:59:07;100364.84;;;16.15;100.00
13068;BME280;6600;51.362;6.686;2022-09-09T06:01:35;100364.03;;;16.15;100.00
13068;BME280;6600;51.362;6.686;2022-09-09T06:04:01;100362.97;;;16.16;100.00
13068;BME280;6600;51.362;6.686;2022-09-09T06:06:31;100358.16;;;16.23;100.00
13068;BME280;6600;51.362;6.686;2022-09-09T06:09:00;100365.97;;;16.25;100.00
13068;BME280;6600;51.362;6.686;2022-09-09T06:11:28;100367.38;;;16.27;100.00
13068;BME280;6600;51.362;6.686;2022-09-09T06:13:56;100370.06;;;16.27;100.00
13068;BME280;6600;51.362;6.686;2022-09-09T06:16:24;100368.97;;;16.28;100.00
13068;BME280;6600;51.362;6.686;2022-09-09T06:18:50;100360.94;;;16.38;100.00
13068;BME280;6600;51.362;6.686;2022-09-09T06:21:18;100370.97;;;16.43;100.00
13068;BME280;6600;51.362;6.686;2022-09-09T06:23:45;100374.50;;;16.48;100.00
13068;BME280;6600;51.362;6.686;2022-09-09T06:26:13;100380.00;;;16.58;100.00
13068;BME280;6600;51.362;6.686;2022-09-09T06:28:39;100380.03;;;16.63;100.00
13068;BME280;6600;51.362;6.686;2022-09-09T06:31:07;100376.84;;;16.77;100.00
13068;BME280;6600;51.362;6.686;2022-09-09T06:33:38;100381.19;;;16.83;100.00
13068;BME280;6600;51.362;6.686;2022-09-09T06:36:12;100385.03;;;16.92;100.00
13068;BME280;6600;51.362;6.686;2022-09-09T06:38:38;100376.38;;;17.00;100.00
13068;BME280;6600;51.362;6.686;2022-09-09T06:41:04;100379.69;;;17.12;100.00
13068;BME280;6600;51.362;6.686;2022-09-09T06:43:31;100385.66;;;17.24;100.00
13068;BME280;6600;51.362;6.686;2022-09-09T06:46:03;100379.72;;;17.32;100.00
13068;BME280;6600;51.362;6.686;2022-09-09T06:48:29;100384.63;;;17.45;100.00
13068;BME280;6600;51.362;6.686;2022-09-09T06:53:34;100388.97;;;17.46;100.00
13068;BME280;6600;51.362;6.686;2022-09-09T06:56:01;100381.38;;;17.43;100.00
13068;BME280;6600;51.362;6.686;2022-09-09T06:58:28;100374.59;;;17.41;100.00
13068;BME280;6600;51.362;6.686;2022-09-09T07:01:04;100390.59;;;17.37;100.00
13068;BME280;6600;51.362;6.686;2022-09-09T07:03:30;100386.78;;;17.48;100.00
13068;BME280;6600;51.362;6.686;2022-09-09T07:05:56;100395.50;;;17.65;100.00
13068;BME280;6600;51.362;6.686;2022-09-09T07:08:22;100383.59;;;17.77;100.00
13068;BME280;6600;51.362;6.686;2022-09-09T07:10:47;100389.81;;;17.72;100.00
13068;BME280;6600;51.362;6.686;2022-09-09T07:13:13;100392.53;;;17.72;100.00
13068;BME280;6600;51.362;6.686;2022-09-09T07:15:40;100387.94;;;17.67;100.00
13068;BME280;6600;51.362;6.686;2022-09-09T07:18:06;100389.81;;;17.57;100.00
13068;BME280;6600;51.362;6.686;2022-09-09T07:20:32;100386.25;;;17.51;100.00
13068;BME280;6600;51.362;6.686;2022-09-09T07:22:57;100402.78;;;17.50;100.00
13068;BME280;6600;51.362;6.686;2022-09-09T07:25:24;100394.38;;;17.51;100.00
13068;BME280;6600;51.362;6.686;2022-09-09T07:27:50;100399.78;;;17.51;100.00
13068;BME280;6600;51.362;6.686;2022-09-09T07:30:15;100409.56;;;17.47;100.00
13068;BME280;6600;51.362;6.686;2022-09-09T07:32:40;100409.28;;;17.49;100.00
13068;BME280;6600;51.362;6.686;2022-09-09T07:35:06;100412.31;;;17.57;100.00
13068;BME280;6600;51.362;6.686;2022-09-09T07:37:31;100413.66;;;17.60;100.00
13068;BME280;6600;51.362;6.686;2022-09-09T07:39:56;100408.00;;;17.77;100.00
13068;BME280;6600;51.362;6.686;2022-09-09T07:42:22;100404.19;;;17.98;100.00
13068;BME280;6600;51.362;6.686;2022-09-09T07:44:47;100415.03;;;18.08;100.00
13068;BME280;6600;51.362;6.686;2022-09-09T07:47:13;100417.22;;;18.06;100.00
13068;BME280;6600;51.362;6.686;2022-09-09T07:49:38;100427.50;;;18.04;100.00
13068;BME280;6600;51.362;6.686;2022-09-09T07:52:04;100416.41;;;18.15;100.00
13068;BME280;6600;51.362;6.686;2022-09-09T07:54:29;100414.47;;;18.31;100.00
13068;BME280;6600;51.362;6.686;2022-09-09T07:56:54;100422.59;;;18.46;100.00
13068;BME280;6600;51.362;6.686;2022-09-09T07:59:20;100417.72;;;18.53;100.00
13068;BME280;6600;51.362;6.686;2022-09-09T08:01:48;100429.66;;;18.57;100.00
13068;BME280;6600;51.362;6.686;2022-09-09T08:04:16;100416.88;;;18.63;100.00
13068;BME280;6600;51.362;6.686;2022-09-09T08:06:48;100422.56;;;18.66;99.98
13068;BME280;6600;51.362;6.686;2022-09-09T08:09:14;100424.22;;;18.67;100.00
13068;BME280;6600;51.362;6.686;2022-09-09T08:11:40;100421.75;;;18.66;99.28
13068;BME280;6600;51.362;6.686;2022-09-09T08:14:07;100428.56;;;18.63;99.99
13068;BME280;6600;51.362;6.686;2022-09-09T08:16:36;100429.34;;;18.74;99.45
13068;BME280;6600;51.362;6.686;2022-09-09T08:19:03;100421.72;;;18.76;98.33
13068;BME280;6600;51.362;6.686;2022-09-09T08:21:30;100418.22;;;18.71;97.40
13068;BME280;6600;51.362;6.686;2022-09-09T08:23:58;100425.56;;;18.75;97.95
13068;BME280;6600;51.362;6.686;2022-09-09T08:26:29;100414.31;;;18.97;96.14
13068;BME280;6600;51.362;6.686;2022-09-09T08:28:57;100428.88;;;19.21;95.89
13068;BME280;6600;51.362;6.686;2022-09-09T08:31:31;100417.63;;;19.48;95.48
13068;BME280;6600;51.362;6.686;2022-09-09T08:33:58;100408.41;;;19.83;94.68
13068;BME280;6600;51.362;6.686;2022-09-09T08:36:32;100424.00;;;20.06;93.18
13068;BME280;6600;51.362;6.686;2022-09-09T08:39:02;100425.16;;;20.34;92.55
13068;BME280;6600;51.362;6.686;2022-09-09T08:55:41;100425.75;;;19.53;90.88
13068;BME280;6600;51.362;6.686;2022-09-09T08:58:16;100426.00;;;19.51;91.17
13068;BME280;6600;51.362;6.686;2022-09-09T09:01:05;100423.59;;;19.45;92.41
13068;BME280;6600;51.362;6.686;2022-09-09T09:06:42;100426.63;;;19.43;91.85
13068;BME280;6600;51.362;6.686;2022-09-09T09:11:55;100431.28;;;19.77;91.51
13068;BME280;6600;51.362;6.686;2022-09-09T09:14:29;100425.00;;;19.81;90.08
13068;BME280;6600;51.362;6.686;2022-09-09T09:19:33;100432.94;;;19.73;90.35
13068;BME280;6600;51.362;6.686;2022-09-09T09:25:11;100440.09;;;19.58;90.46
13068;BME280;6600;51.362;6.686;2022-09-09T09:30:29;100445.53;;;19.58;91.36
13068;BME280;6600;51.362;6.686;2022-09-09T09:33:02;100438.44;;;19.67;90.73
13068;BME280;6600;51.362;6.686;2022-09-09T09:35:31;100435.66;;;19.73;89.31
13068;BME280;6600;51.362;6.686;2022-09-09T09:37:56;100448.66;;;19.81;89.71
13068;BME280;6600;51.362;6.686;2022-09-09T09:40:23;100427.81;;;19.66;88.49
13068;BME280;6600;51.362;6.686;2022-09-09T09:42:52;100442.56;;;19.55;89.20
13068;BME280;6600;51.362;6.686;2022-09-09T09:45:28;100440.16;;;19.48;89.83
13068;BME280;6600;51.362;6.686;2022-09-09T09:48:09;100440.66;;;19.60;89.45
13068;BME280;6600;51.362;6.686;2022-09-09T09:50:50;100433.50;;;19.75;90.26
13068;BME280;6600;51.362;6.686;2022-09-09T09:53:22;100428.78;;;20.19;87.85
13068;BME280;6600;51.362;6.686;2022-09-09T09:55:54;100435.25;;;20.57;85.09
13068;BME280;6600;51.362;6.686;2022-09-09T09:58:20;100428.06;;;20.90;85.18
13068;BME280;6600;51.362;6.686;2022-09-09T10:00:50;100423.28;;;21.24;83.33
13068;BME280;6600;51.362;6.686;2022-09-09T10:03:29;100427.00;;;21.52;81.88
13068;BME280;6600;51.362;6.686;2022-09-09T10:05:55;100429.19;;;21.68;80.75
13068;BME280;6600;51.362;6.686;2022-09-09T10:08:23;100422.81;;;21.78;78.99
13068;BME280;6600;51.362;6.686;2022-09-09T10:11:06;100430.81;;;21.70;78.15
13068;BME280;6600;51.362;6.686;2022-09-09T10:13:57;100432.09;;;21.40;78.37
13068;BME280;6600;51.362;6.686;2022-09-09T10:16:32;100425.16;;;21.29;80.63
13068;BME280;6600;51.362;6.686;2022-09-09T10:19:04;100430.47;;;21.20;79.81
13068;BME280;6600;51.362;6.686;2022-09-09T10:27:02;100421.75;;;20.71;82.29
13068;BME280;6600;51.362;6.686;2022-09-09T10:30:00;100423.88;;;20.50;83.44
13068;BME280;6600;51.362;6.686;2022-09-09T10:32:40;100422.78;;;20.17;82.99
13068;BME280;6600;51.362;6.686;2022-09-09T10:48:31;100416.88;;;20.10;84.37
13068;BME280;6600;51.362;6.686;2022-09-09T10:51:23;100408.59;;;20.25;83.63
13068;BME280;6600;51.362;6.686;2022-09-09T10:54:47;100414.88;;;20.54;83.81
13068;BME280;6600;51.362;6.686;2022-09-09T10:57:10;100404.56;;;20.75;82.58
13068;BME280;6600;51.362;6.686;2022-09-09T10:59:44;100401.88;;;20.70;81.55
13068;BME280;6600;51.362;6.686;2022-09-09T11:02:34;100403.97;;;20.54;82.71
13068;BME280;6600;51.362;6.686;2022-09-09T11:05:30;100399.25;;;20.36;83.12
13068;BME280;6600;51.362;6.686;2022-09-09T11:08:03;100411.81;;;20.32;84.64
13068;BME280;6600;51.362;6.686;2022-09-09T11:18:59;100405.94;;;20.20;84.88
13068;BME280;6600;51.362;6.686;2022-09-09T11:21:30;100405.59;;;20.27;83.07
13068;BME280;6600;51.362;6.686;2022-09-09T11:24:02;100400.00;;;20.42;82.91
13068;BME280;6600;51.362;6.686;2022-09-09T11:26:38;100406.00;;;20.67;82.72
13068;BME280;6600;51.362;6.686;2022-09-09T11:32:08;100395.13;;;21.10;80.62
13068;BME280;6600;51.362;6.686;2022-09-09T11:37:22;100406.13;;;21.00;83.00
13068;BME280;6600;51.362;6.686;2022-09-09T11:42:27;100402.75;;;21.13;81.33
13068;BME280;6600;51.362;6.686;2022-09-09T11:44:52;100396.78;;;21.11;79.90
13068;BME280;6600;51.362;6.686;2022-09-09T11:47:30;100400.34;;;21.06;79.95
13068;BME280;6600;51.362;6.686;2022-09-09T11:50:09;100402.53;;;21.28;80.34
13068;BME280;6600;51.362;6.686;2022-09-09T11:52:40;100396.34;;;21.41;78.87
13068;BME280;6600;51.362;6.686;2022-09-09T11:55:24;100399.22;;;21.31;79.04
13068;BME280;6600;51.362;6.686;2022-09-09T11:57:59;100397.53;;;21.17;80.67
13068;BME280;6600;51.362;6.686;2022-09-09T12:00:43;100396.28;;;21.04;81.28
13068;BME280;6600;51.362;6.686;2022-09-09T12:03:41;100398.75;;;20.82;82.61
13068;BME280;6600;51.362;6.686;2022-09-09T12:06:11;100396.44;;;20.70;83.05
13068;BME280;6600;51.362;6.686;2022-09-09T12:08:41;100411.38;;;20.73;85.08
13068;BME280;6600;51.362;6.686;2022-09-09T12:11:08;100401.53;;;20.77;83.86
13068;BME280;6600;51.362;6.686;2022-09-09T12:13:33;100392.25;;;21.01;83.31
13068;BME280;6600;51.362;6.686;2022-09-09T12:16:00;100394.75;;;21.40;82.28
13068;BME280;6600;51.362;6.686;2022-09-09T12:18:37;100402.38;;;21.38;79.95
13068;BME280;6600;51.362;6.686;2022-09-09T12:21:34;100409.28;;;21.12;80.58
13068;BME280;6600;51.362;6.686;2022-09-09T12:24:09;100423.19;;;20.87;82.54
13068;BME280;6600;51.362;6.686;2022-09-09T12:26:46;100432.91;;;20.45;90.73
13068;BME280;6600;51.362;6.686;2022-09-09T12:32:05;100429.84;;;19.45;99.97
13068;BME280;6600;51.362;6.686;2022-09-09T12:37:13;100442.59;;;18.96;100.00
13068;BME280;6600;51.362;6.686;2022-09-09T12:40:00;100436.63;;;18.89;100.00
13068;BME280;6600;51.362;6.686;2022-09-09T12:42:28;100425.56;;;18.55;100.00
13068;BME280;6600;51.362;6.686;2022-09-09T12:44:58;100436.69;;;18.48;100.00
13068;BME280;6600;51.362;6.686;2022-09-09T12:50:01;100442.41;;;18.22;100.00
13068;BME280;6600;51.362;6.686;2022-09-09T12:52:30;100442.97;;;18.03;100.00
13068;BME280;6600;51.362;6.686;2022-09-09T12:54:58;100450.81;;;17.90;100.00
13068;BME280;6600;51.362;6.686;2022-09-09T12:57:33;100439.44;;;17.83;100.00
13068;BME280;6600;51.362;6.686;2022-09-09T13:00:16;100443.50;;;17.75;100.00
13068;BME280;6600;51.362;6.686;2022-09-09T13:02:55;100439.41;;;17.73;100.00
13068;BME280;6600;51.362;6.686;2022-09-09T13:05:27;100435.63;;;17.74;100.00
13068;BME280;6600;51.362;6.686;2022-09-09T13:08:08;100428.56;;;17.73;100.00
13068;BME280;6600;51.362;6.686;2022-09-09T13:10:47;100414.22;;;18.07;100.00
13068;BME280;6600;51.362;6.686;2022-09-09T13:13:16;100408.50;;;18.24;100.00
13068;BME280;6600;51.362;6.686;2022-09-09T13:15:52;100413.34;;;18.67;100.00
13068;BME280;6600;51.362;6.686;2022-09-09T13:18:22;100405.19;;;18.78;100.00
13068;BME280;6600;51.362;6.686;2022-09-09T13:20:48;100403.31;;;18.68;100.00
13068;BME280;6600;51.362;6.686;2022-09-09T13:23:16;100399.78;;;18.62;100.00
13068;BME280;6600;51.362;6.686;2022-09-09T13:25:58;100389.38;;;18.90;100.00
13068;BME280;6600;51.362;6.686;2022-09-09T13:28:26;100385.41;;;19.21;100.00
13068;BME280;6600;51.362;6.686;2022-09-09T13:33:47;100388.47;;;19.58;100.00
13068;BME280;6600;51.362;6.686;2022-09-09T13:36:13;100385.13;;;19.72;100.00
13068;BME280;6600;51.362;6.686;2022-09-09T13:41:20;100378.88;;;20.00;100.00
13068;BME280;6600;51.362;6.686;2022-09-09T13:43:47;100376.25;;;20.24;100.00
13068;BME280;6600;51.362;6.686;2022-09-09T13:46:40;100375.25;;;20.43;100.00
13068;BME280;6600;51.362;6.686;2022-09-09T13:54:02;100376.41;;;20.37;100.00
13068;BME280;6600;51.362;6.686;2022-09-09T13:56:28;100383.63;;;20.18;100.00
13068;BME280;6600;51.362;6.686;2022-09-09T13:58:54;100373.78;;;20.22;100.00
13068;BME280;6600;51.362;6.686;2022-09-09T14:01:19;100365.66;;;20.17;100.00
13068;BME280;6600;51.362;6.686;2022-09-09T14:03:44;100366.81;;;20.11;100.00
13068;BME280;6600;51.362;6.686;2022-09-09T14:06:10;100368.75;;;20.39;100.00
13068;BME280;6600;51.362;6.686;2022-09-09T14:08:36;100366.53;;;20.41;100.00
13068;BME280;6600;51.362;6.686;2022-09-09T14:11:05;100375.59;;;20.60;100.00
13068;BME280;6600;51.362;6.686;2022-09-09T14:13:32;100365.97;;;20.68;98.93
13068;BME280;6600;51.362;6.686;2022-09-09T14:15:57;100374.66;;;20.70;100.00
13068;BME280;6600;51.362;6.686;2022-09-09T14:18:23;100371.06;;;20.75;99.52
13068;BME280;6600;51.362;6.686;2022-09-09T14:20:50;100370.38;;;20.40;98.07
13068;BME280;6600;51.362;6.686;2022-09-09T14:23:16;100364.63;;;20.13;100.00
13068;BME280;6600;51.362;6.686;2022-09-09T14:25:42;100369.13;;;19.99;100.00
13068;BME280;6600;51.362;6.686;2022-09-09T14:28:10;100406.88;;;19.72;100.00
13068;BME280;6600;51.362;6.686;2022-09-09T14:30:40;100409.66;;;19.12;100.00
13068;BME280;6600;51.362;6.686;2022-09-09T14:33:07;100421.50;;;18.42;100.00
13068;BME280;6600;51.362;6.686;2022-09-09T14:35:33;100426.69;;;17.83;100.00
13068;BME280;6600;51.362;6.686;2022-09-09T14:37:58;100422.06;;;17.58;100.00
13068;BME280;6600;51.362;6.686;2022-09-09T14:40:26;100421.94;;;17.18;100.00
13068;BME280;6600;51.362;6.686;2022-09-09T14:42:52;100408.59;;;17.01;100.00
13068;BME280;6600;51.362;6.686;2022-09-09T14:45:18;100409.34;;;16.87;100.00
13068;BME280;6600;51.362;6.686;2022-09-09T14:47:44;100406.59;;;16.77;100.00
13068;BME280;6600;51.362;6.686;2022-09-09T14:50:10;100413.03;;;16.65;100.00
13068;BME280;6600;51.362;6.686;2022-09-09T14:52:38;100409.25;;;16.66;100.00
13068;BME280;6600;51.362;6.686;2022-09-09T14:55:04;100394.38;;;16.64;100.00
13068;BME280;6600;51.362;6.686;2022-09-09T14:57:29;100390.81;;;16.58;100.00
13068;BME280;6600;51.362;6.686;2022-09-09T14:59:55;100390.31;;;16.61;100.00
13068;BME280;6600;51.362;6.686;2022-09-09T15:02:21;100392.44;;;16.59;100.00
13068;BME280;6600;51.362;6.686;2022-09-09T15:04:47;100384.88;;;16.56;100.00
13068;BME280;6600;51.362;6.686;2022-09-09T15:07:12;100390.31;;;16.61;100.00
13068;BME280;6600;51.362;6.686;2022-09-09T15:09:38;100377.31;;;16.63;100.00
13068;BME280;6600;51.362;6.686;2022-09-09T15:12:03;100377.84;;;16.60;100.00
13068;BME280;6600;51.362;6.686;2022-09-09T15:14:29;100368.66;;;16.61;100.00
13068;BME280;6600;51.362;6.686;2022-09-09T15:16:55;100366.50;;;16.63;100.00
13068;BME280;6600;51.362;6.686;2022-09-09T15:19:21;100368.16;;;16.70;100.00
13068;BME280;6600;51.362;6.686;2022-09-09T15:21:46;100374.44;;;16.85;100.00
13068;BME280;6600;51.362;6.686;2022-09-09T15:24:12;100368.25;;;16.95;100.00